Time;durP1;ratioP1;P1;durP2;ratioP2;P2;SDS_P1;SDS_P2;PMS_P1;PMS_P2;Temp;Humidity;BMP_temperature;BMP_pressure;BME280_temperature;BME280_humidity;BME280_pressure;Samples;Min_cycle;Max_cycle;Signal;HPM_P1;HPM_P2
2023/12/03 00:00:12;;;;;;;35.40;23.33;;;0.30;99.90;;;;;;5138505;27;20011;-73
2023/12/03 00:02:38;;;;;;;30.05;21.27;;;0.20;99.90;;;;;;5120108;27;20027;-74
2023/12/03 00:05:06;;;;;;;30.42;20.90;;;0.20;99.90;;;;;;5138199;27;20023;-73
2023/12/03 00:07:32;;;;;;;30.75;19.92;;;0.20;99.90;;;;;;5138320;27;20396;-74
2023/12/03 00:09:59;;;;;;;29.27;19.48;;;0.10;99.90;;;;;;5138281;27;20022;-74
2023/12/03 00:12:24;;;;;;;34.17;18.80;;;0.10;99.90;;;;;;5138283;27;20023;-74
2023/12/03 00:14:50;;;;;;;24.15;17.75;;;0.10;99.90;;;;;;5138161;27;20017;-74
2023/12/03 00:17:16;;;;;;;30.65;19.42;;;0.10;99.90;;;;;;5137985;27;20027;-74
2023/12/03 00:19:41;;;;;;;29.42;19.15;;;0.10;99.90;;;;;;5132256;27;20072;-74
2023/12/03 00:22:08;;;;;;;31.63;19.35;;;0.10;99.90;;;;;;5119550;27;20027;-74
2023/12/03 00:24:33;;;;;;;28.98;20.63;;;0.00;99.90;;;;;;5138022;27;20027;-74
2023/12/03 00:26:59;;;;;;;31.75;21.13;;;0.10;99.90;;;;;;5138074;27;20031;-74
2023/12/03 00:29:25;;;;;;;34.05;21.63;;;0.10;99.90;;;;;;5137790;27;20026;-74
2023/12/03 00:31:52;;;;;;;31.73;22.08;;;0.00;99.90;;;;;;5137998;27;20079;-74
2023/12/03 00:34:17;;;;;;;35.97;22.77;;;0.10;99.90;;;;;;5115610;28;20518;-74
2023/12/03 00:36:43;;;;;;;33.65;22.40;;;0.20;99.90;;;;;;5111129;27;20062;-74
2023/12/03 00:39:09;;;;;;;31.92;21.90;;;0.30;99.90;;;;;;5137610;27;20019;-74
2023/12/03 00:41:34;;;;;;;33.55;23.38;;;0.30;99.90;;;;;;5137753;27;20402;-74
2023/12/03 00:44:00;;;;;;;34.03;21.77;;;0.40;99.90;;;;;;5137521;27;20068;-74
2023/12/03 00:46:26;;;;;;;37.40;23.75;;;0.40;99.90;;;;;;5137691;27;20045;-74
2023/12/03 00:48:52;;;;;;;36.13;23.52;;;0.40;99.90;;;;;;5137370;27;20019;-74
2023/12/03 00:51:18;;;;;;;38.30;22.85;;;0.50;99.90;;;;;;5115611;28;20035;-74
2023/12/03 00:53:44;;;;;;;34.83;22.55;;;0.50;99.90;;;;;;5135158;27;20048;-74
2023/12/03 00:56:11;;;;;;;35.25;22.85;;;0.50;99.90;;;;;;5118976;27;20023;-74
2023/12/03 00:58:37;;;;;;;35.22;23.50;;;0.50;99.90;;;;;;5137285;27;20023;-74
2023/12/03 01:01:03;;;;;;;42.45;28.90;;;0.60;99.90;;;;;;5137567;27;20034;-74
2023/12/03 01:03:29;;;;;;;38.60;23.90;;;0.40;99.90;;;;;;5118434;27;20023;-74
2023/12/03 01:05:55;;;;;;;36.72;22.48;;;0.40;99.90;;;;;;5137200;27;20398;-73
2023/12/03 01:08:20;;;;;;;49.28;28.45;;;0.30;99.90;;;;;;5137029;27;20068;-74
2023/12/03 01:10:46;;;;;;;46.90;30.05;;;0.30;99.90;;;;;;5137621;27;20035;-74
2023/12/03 01:13:12;;;;;;;48.83;32.78;;;0.10;99.90;;;;;;5137142;27;20398;-74
2023/12/03 01:15:38;;;;;;;58.30;35.45;;;0.00;99.90;;;;;;5118664;27;20680;-74
2023/12/03 01:18:03;;;;;;;55.75;35.60;;;-0.10;99.90;;;;;;5118248;27;20425;-74
2023/12/03 01:20:29;;;;;;;58.08;40.83;;;-0.20;99.90;;;;;;5131138;27;20429;-74
2023/12/03 01:22:54;;;;;;;56.50;35.55;;;-0.20;99.90;;;;;;5136613;27;20022;-74
2023/12/03 01:25:20;;;;;;;57.78;35.05;;;-0.30;99.90;;;;;;5136665;27;20019;-74
2023/12/03 01:27:46;;;;;;;51.90;33.05;;;-0.30;99.90;;;;;;5136937;27;20403;-74
2023/12/03 01:30:12;;;;;;;46.25;29.13;;;-0.30;99.90;;;;;;5136988;27;20031;-74
2023/12/03 01:32:39;;;;;;;43.40;29.80;;;-0.30;99.90;;;;;;5136672;27;20049;-74
2023/12/03 01:35:04;;;;;;;46.70;28.67;;;-0.30;99.90;;;;;;5136827;27;20027;-73
2023/12/03 01:37:30;;;;;;;43.25;29.50;;;-0.30;99.90;;;;;;5136662;27;20483;-73
2023/12/03 01:39:56;;;;;;;43.92;31.33;;;-0.30;99.90;;;;;;5136963;27;20023;-74
2023/12/03 01:42:24;;;;;;;49.65;30.25;;;-0.40;99.90;;;;;;5136649;27;20011;-74
2023/12/03 01:44:50;;;;;;;44.50;30.13;;;-0.40;99.90;;;;;;5136929;27;20027;-74
2023/12/03 01:47:17;;;;;;;48.08;31.00;;;-0.50;99.90;;;;;;5136553;27;20026;-74
2023/12/03 01:49:44;;;;;;;42.47;27.10;;;-0.50;99.90;;;;;;5137054;27;20027;-73
2023/12/03 01:52:11;;;;;;;44.50;27.30;;;-0.50;99.90;;;;;;5136558;27;20402;-73
2023/12/03 01:54:39;;;;;;;44.17;27.33;;;-0.50;99.90;;;;;;5136409;27;20051;-74
2023/12/03 01:57:04;;;;;;;40.85;26.65;;;-0.50;99.90;;;;;;5118330;28;20019;-73
2023/12/03 01:59:31;;;;;;;39.70;26.23;;;-0.60;99.90;;;;;;5115027;28;20030;-74
2023/12/03 02:01:57;;;;;;;36.85;23.33;;;-0.50;99.90;;;;;;5135796;28;20538;-74
2023/12/03 02:04:22;;;;;;;36.42;25.60;;;-0.50;99.90;;;;;;5136788;28;20424;-74
2023/12/03 02:06:48;;;;;;;35.90;23.73;;;-0.50;99.90;;;;;;5136447;28;20102;-74
2023/12/03 02:09:16;;;;;;;38.90;24.50;;;-0.60;99.90;;;;;;5135929;28;20027;-73
2023/12/03 02:11:42;;;;;;;39.10;21.95;;;-0.60;99.90;;;;;;5136556;28;20022;-74
2023/12/03 02:14:09;;;;;;;38.22;24.77;;;-0.60;99.90;;;;;;5136582;28;20065;-73
2023/12/03 02:16:35;;;;;;;38.55;23.05;;;-0.60;99.90;;;;;;5117902;28;20075;-73
2023/12/03 02:19:02;;;;;;;33.83;22.73;;;-0.60;99.90;;;;;;5131482;28;20027;-73
2023/12/03 02:21:28;;;;;;;38.63;22.85;;;-0.50;99.90;;;;;;5117446;28;20070;-73
2023/12/03 02:23:54;;;;;;;34.83;21.85;;;-0.50;99.90;;;;;;5136693;28;20497;-74
2023/12/03 02:26:19;;;;;;;34.53;21.58;;;-0.50;99.90;;;;;;5117609;28;20028;-73
2023/12/03 02:28:45;;;;;;;41.05;23.33;;;-0.50;99.90;;;;;;5136422;28;20084;-73
2023/12/03 02:31:11;;;;;;;40.33;22.52;;;-0.60;99.90;;;;;;5136323;28;20070;-73
2023/12/03 02:33:37;;;;;;;31.42;22.15;;;-0.60;99.90;;;;;;5136122;28;20092;-73
2023/12/03 02:36:03;;;;;;;39.13;23.58;;;-0.50;99.90;;;;;;5137493;27;20038;-73
2023/12/03 02:38:28;;;;;;;37.72;22.92;;;-0.50;99.90;;;;;;5140220;27;20129;-73
2023/12/03 02:40:56;;;;;;;40.60;23.15;;;-0.50;99.90;;;;;;5139954;27;20015;-73
2023/12/03 02:43:22;;;;;;;35.75;23.05;;;-0.50;99.90;;;;;;5140173;27;20030;-73
2023/12/03 02:45:47;;;;;;;37.42;24.38;;;-0.50;99.90;;;;;;5139867;27;20031;-73
2023/12/03 02:48:13;;;;;;;38.92;24.75;;;-0.60;99.90;;;;;;5139810;27;20027;-74
2023/12/03 02:50:39;;;;;;;39.58;25.50;;;-0.60;99.90;;;;;;5139815;27;20774;-73
2023/12/03 02:53:04;;;;;;;38.67;26.30;;;-0.60;99.90;;;;;;5117595;28;20051;-73
2023/12/03 02:55:30;;;;;;;37.97;25.25;;;-0.60;99.90;;;;;;5137472;27;20022;-73
2023/12/03 02:57:55;;;;;;;41.22;24.80;;;-0.60;99.90;;;;;;5139783;27;20029;-73
2023/12/03 03:00:21;;;;;;;37.65;23.02;;;-0.70;99.90;;;;;;5139591;27;20019;-73
2023/12/03 03:02:47;;;;;;;34.45;22.35;;;-0.70;99.90;;;;;;5139418;27;20023;-73
2023/12/03 03:05:12;;;;;;;38.95;23.67;;;-0.70;99.90;;;;;;5139517;27;20023;-73
2023/12/03 03:07:38;;;;;;;39.17;23.10;;;-0.70;99.90;;;;;;5139508;27;20027;-73
2023/12/03 03:10:04;;;;;;;35.97;22.95;;;-0.70;99.90;;;;;;5139565;27;20020;-73
2023/12/03 03:12:29;;;;;;;39.13;24.42;;;-0.60;99.90;;;;;;5139495;27;20027;-73
2023/12/03 03:14:55;;;;;;;42.03;27.45;;;-0.60;99.90;;;;;;5139242;27;20015;-73
2023/12/03 03:17:21;;;;;;;42.67;27.10;;;-0.60;99.90;;;;;;5139107;27;20024;-74
2023/12/03 03:19:46;;;;;;;43.83;28.20;;;-0.60;99.90;;;;;;5133233;27;20019;-73
2023/12/03 03:22:13;;;;;;;45.78;27.95;;;-0.70;99.90;;;;;;5120602;27;20026;-73
2023/12/03 03:24:41;;;;;;;46.67;27.08;;;-0.70;99.90;;;;;;5120555;27;20027;-73
2023/12/03 03:27:06;;;;;;;42.80;26.90;;;-0.80;99.90;;;;;;5120731;27;20059;-73
2023/12/03 03:29:33;;;;;;;38.30;25.10;;;-0.80;99.90;;;;;;5138994;27;20027;-73
2023/12/03 03:31:59;;;;;;;46.17;26.63;;;-0.90;99.90;;;;;;5120488;27;20027;-73
2023/12/03 03:34:25;;;;;;;40.22;26.35;;;-0.90;99.90;;;;;;5138640;27;20023;-73
2023/12/03 03:36:50;;;;;;;39.92;26.33;;;-0.90;99.90;;;;;;5138985;27;20543;-73
2023/12/03 03:39:16;;;;;;;43.08;24.38;;;-0.90;99.90;;;;;;5138912;27;20019;-74
2023/12/03 03:41:41;;;;;;;42.92;26.30;;;-0.90;99.90;;;;;;5139007;27;20034;-74
2023/12/03 03:44:07;;;;;;;42.08;26.95;;;-0.90;99.90;;;;;;5138790;27;20387;-73
2023/12/03 03:46:33;;;;;;;37.50;23.85;;;-0.90;99.90;;;;;;5138512;27;20058;-73
2023/12/03 03:48:58;;;;;;;38.38;26.13;;;-0.90;99.90;;;;;;5138491;27;20094;-73
2023/12/03 03:51:24;;;;;;;37.05;22.83;;;-0.90;99.90;;;;;;5138785;27;20031;-73
2023/12/03 03:53:50;;;;;;;37.08;25.67;;;-0.90;99.90;;;;;;5138058;27;20051;-73
2023/12/03 03:56:16;;;;;;;33.72;24.13;;;-0.90;99.90;;;;;;5120134;27;20047;-73
2023/12/03 03:58:42;;;;;;;44.72;27.30;;;-0.90;99.90;;;;;;5138353;27;20019;-73
2023/12/03 04:01:09;;;;;;;40.17;26.27;;;-0.90;99.90;;;;;;5116576;28;20030;-73
2023/12/03 04:03:35;;;;;;;41.33;24.90;;;-1.00;99.90;;;;;;5137971;27;20015;-73
2023/12/03 04:06:03;;;;;;;40.95;25.27;;;-1.00;99.90;;;;;;5118297;27;20113;-73
2023/12/03 04:08:29;;;;;;;47.08;26.38;;;-1.00;99.90;;;;;;5116157;28;20053;-73
2023/12/03 04:10:55;;;;;;;39.30;23.98;;;-1.00;99.90;;;;;;5134082;27;20035;-74
2023/12/03 04:13:20;;;;;;;38.53;25.08;;;-1.00;99.90;;;;;;5138077;27;20019;-74
2023/12/03 04:15:46;;;;;;;38.72;24.73;;;-1.00;99.90;;;;;;5138010;27;20023;-73
2023/12/03 04:18:12;;;;;;;41.17;24.33;;;-1.00;99.90;;;;;;5137934;27;20022;-74
2023/12/03 04:20:37;;;;;;;37.53;25.52;;;-1.00;99.90;;;;;;5135474;27;20020;-74
2023/12/03 04:23:03;;;;;;;43.53;25.00;;;-1.00;99.90;;;;;;5138168;27;20023;-74
2023/12/03 04:25:30;;;;;;;43.53;26.90;;;-1.00;99.90;;;;;;5136969;27;20059;-73
2023/12/03 04:27:56;;;;;;;42.05;25.65;;;-1.00;99.90;;;;;;5115923;28;20102;-74
2023/12/03 04:30:22;;;;;;;54.78;29.55;;;-1.10;99.90;;;;;;5132559;27;20023;-74
2023/12/03 04:32:48;;;;;;;48.13;28.45;;;-1.10;99.90;;;;;;5137451;27;20015;-73
2023/12/03 04:35:14;;;;;;;40.97;26.63;;;-1.10;99.90;;;;;;5137711;27;20086;-73
2023/12/03 04:37:40;;;;;;;39.80;27.05;;;-1.10;99.90;;;;;;5137655;27;20466;-73
2023/12/03 04:40:06;;;;;;;50.85;28.00;;;-1.10;99.90;;;;;;5137595;27;20027;-73
2023/12/03 04:42:32;;;;;;;52.28;28.15;;;-1.20;99.90;;;;;;5119137;27;20011;-73
2023/12/03 04:44:57;;;;;;;46.83;27.65;;;-1.20;99.90;;;;;;5119135;27;20059;-73
2023/12/03 04:47:23;;;;;;;46.22;29.23;;;-1.20;99.90;;;;;;5118699;27;20038;-73
2023/12/03 04:49:49;;;;;;;42.78;27.95;;;-1.20;99.90;;;;;;5119351;27;20521;-73
2023/12/03 04:52:14;;;;;;;47.47;29.17;;;-1.20;99.90;;;;;;5137282;27;20107;-73
2023/12/03 04:54:40;;;;;;;46.88;29.27;;;-1.20;99.90;;;;;;5118842;27;20043;-74
2023/12/03 04:57:06;;;;;;;53.47;31.02;;;-1.20;99.90;;;;;;5137267;27;20011;-73
2023/12/03 04:59:31;;;;;;;58.13;33.40;;;-1.20;99.90;;;;;;5136594;27;20471;-74
2023/12/03 05:01:57;;;;;;;51.55;34.05;;;-1.20;99.90;;;;;;5137254;27;20027;-73
2023/12/03 05:04:25;;;;;;;52.53;32.58;;;-1.20;99.90;;;;;;5136952;27;20023;-74
2023/12/03 05:06:51;;;;;;;46.10;30.05;;;-1.20;99.90;;;;;;5136724;27;20545;-73
2023/12/03 05:09:16;;;;;;;53.55;30.75;;;-1.20;99.90;;;;;;5118516;27;20073;-73
2023/12/03 05:11:44;;;;;;;50.20;29.70;;;-1.20;99.90;;;;;;5115209;28;20494;-73
2023/12/03 05:14:10;;;;;;;41.65;27.23;;;-1.20;99.90;;;;;;5136076;27;20068;-73
2023/12/03 05:16:36;;;;;;;47.20;29.75;;;-1.20;99.90;;;;;;5136873;27;20509;-73
2023/12/03 05:19:01;;;;;;;56.70;30.25;;;-1.30;99.90;;;;;;5131594;27;20031;-73
2023/12/03 05:21:27;;;;;;;47.30;28.33;;;-1.30;99.90;;;;;;5135304;27;20034;-74
2023/12/03 05:23:53;;;;;;;46.67;28.35;;;-1.30;99.90;;;;;;5118342;27;20110;-73
2023/12/03 05:26:18;;;;;;;48.72;29.38;;;-1.30;99.90;;;;;;5136435;27;20023;-74
2023/12/03 05:28:44;;;;;;;46.22;28.77;;;-1.30;99.90;;;;;;5136674;27;20091;-73
2023/12/03 05:31:10;;;;;;;52.08;29.77;;;-1.40;99.90;;;;;;5136612;27;20037;-74
2023/12/03 05:33:36;;;;;;;46.47;29.45;;;-1.40;99.90;;;;;;5117972;27;20035;-74
2023/12/03 05:36:01;;;;;;;44.92;29.95;;;-1.40;99.90;;;;;;5136567;27;20015;-74
2023/12/03 05:38:27;;;;;;;48.22;30.38;;;-1.40;99.90;;;;;;5136607;27;20024;-74
2023/12/03 05:40:52;;;;;;;51.38;30.10;;;-1.50;99.90;;;;;;5136631;27;20120;-74
2023/12/03 05:43:18;;;;;;;51.63;30.33;;;-1.50;99.90;;;;;;5136530;27;20019;-73
2023/12/03 05:45:44;;;;;;;52.80;30.35;;;-1.50;99.90;;;;;;5136558;27;20471;-74
2023/12/03 05:48:10;;;;;;;49.70;29.40;;;-1.50;99.90;;;;;;5117758;28;20023;-74
2023/12/03 05:50:36;;;;;;;47.30;28.85;;;-1.50;99.90;;;;;;5114843;28;20019;-74
2023/12/03 05:53:02;;;;;;;47.47;29.27;;;-1.60;99.90;;;;;;5133779;27;20438;-74
2023/12/03 05:55:28;;;;;;;53.45;31.42;;;-1.60;99.90;;;;;;5114494;28;20020;-74
2023/12/03 05:57:54;;;;;;;45.80;29.08;;;-1.60;99.90;;;;;;5134041;28;20082;-74
2023/12/03 06:00:19;;;;;;;44.08;28.90;;;-1.60;99.90;;;;;;5136324;28;20092;-73
2023/12/03 06:02:45;;;;;;;40.20;27.20;;;-1.60;99.90;;;;;;5135963;28;20026;-73
2023/12/03 06:05:11;;;;;;;47.50;29.90;;;-1.60;99.90;;;;;;5114319;28;20427;-73
2023/12/03 06:07:37;;;;;;;51.95;30.02;;;-1.60;99.90;;;;;;5111116;28;20036;-73
2023/12/03 06:10:03;;;;;;;42.40;27.85;;;-1.60;99.90;;;;;;5135705;27;20030;-73
2023/12/03 06:12:29;;;;;;;50.08;29.55;;;-1.60;99.90;;;;;;5118235;28;20023;-73
2023/12/03 06:14:55;;;;;;;49.22;30.60;;;-1.60;99.90;;;;;;5138366;27;20019;-73
2023/12/03 06:17:21;;;;;;;48.72;27.75;;;-1.60;99.90;;;;;;5121636;27;20023;-73
2023/12/03 06:19:47;;;;;;;44.83;28.13;;;-1.60;99.90;;;;;;5139244;27;20019;-73
2023/12/03 06:22:12;;;;;;;44.42;28.25;;;-1.70;99.90;;;;;;5121753;27;20043;-73
2023/12/03 06:24:38;;;;;;;50.90;28.90;;;-1.70;99.90;;;;;;5140339;27;20398;-73
2023/12/03 06:27:04;;;;;;;46.35;28.25;;;-1.80;99.90;;;;;;5140177;27;20436;-73
2023/12/03 06:29:30;;;;;;;48.42;28.65;;;-1.80;99.90;;;;;;5140366;27;20026;-73
2023/12/03 06:31:56;;;;;;;46.30;26.77;;;-1.80;99.90;;;;;;5121296;27;20130;-73
2023/12/03 06:34:21;;;;;;;43.10;25.92;;;-1.80;99.90;;;;;;5118192;28;20027;-73
2023/12/03 06:36:47;;;;;;;41.63;26.67;;;-1.80;99.90;;;;;;5119023;27;20023;-73
2023/12/03 06:39:12;;;;;;;44.60;27.42;;;-1.80;99.90;;;;;;5140080;27;20027;-73
2023/12/03 06:41:38;;;;;;;44.25;27.25;;;-1.80;99.90;;;;;;5121340;27;20023;-73
2023/12/03 06:44:04;;;;;;;47.35;26.48;;;-1.80;99.90;;;;;;5118123;28;20028;-73
2023/12/03 06:46:30;;;;;;;45.80;27.70;;;-1.80;99.90;;;;;;5137611;27;20034;-73
2023/12/03 06:48:55;;;;;;;47.63;28.50;;;-1.90;99.90;;;;;;5139664;27;20031;-73
2023/12/03 06:51:21;;;;;;;40.45;27.65;;;-1.90;99.90;;;;;;5121136;27;20031;-74
2023/12/03 06:53:46;;;;;;;44.90;27.02;;;-1.90;99.90;;;;;;5139482;27;20051;-73
2023/12/03 06:56:12;;;;;;;52.63;32.63;;;-1.90;99.90;;;;;;5121191;27;20061;-73
2023/12/03 06:58:38;;;;;;;45.80;28.33;;;-1.90;99.90;;;;;;5139682;27;20045;-73
2023/12/03 07:01:04;;;;;;;49.53;28.98;;;-1.90;99.90;;;;;;5139533;27;20073;-73
2023/12/03 07:03:30;;;;;;;47.60;29.52;;;-1.90;99.90;;;;;;5139323;27;20027;-73
2023/12/03 07:05:55;;;;;;;46.13;29.50;;;-1.90;99.90;;;;;;5139274;27;20027;-73
2023/12/03 07:08:21;;;;;;;40.53;27.63;;;-1.90;99.90;;;;;;5139333;27;20023;-73
2023/12/03 07:10:47;;;;;;;37.35;27.60;;;-1.90;99.90;;;;;;5139509;27;20106;-73
2023/12/03 07:13:12;;;;;;;42.75;28.00;;;-1.90;99.90;;;;;;5139365;27;20019;-73
2023/12/03 07:15:38;;;;;;;50.10;28.65;;;-1.90;99.90;;;;;;5138496;27;20406;-73
2023/12/03 07:18:04;;;;;;;57.00;32.40;;;-1.90;99.90;;;;;;5139070;27;20033;-73
2023/12/03 07:20:29;;;;;;;98.38;39.47;;;-1.90;99.90;;;;;;5134253;27;20046;-73
2023/12/03 07:22:55;;;;;;;81.82;37.72;;;-1.90;99.90;;;;;;5138078;27;20023;-73
2023/12/03 07:25:22;;;;;;;84.30;36.72;;;-1.90;99.90;;;;;;5139418;27;20563;-73
2023/12/03 07:27:48;;;;;;;49.85;30.73;;;-2.00;99.90;;;;;;5139014;27;20099;-74
2023/12/03 07:30:14;;;;;;;39.80;28.50;;;-1.90;99.90;;;;;;5120720;27;20054;-74
2023/12/03 07:32:40;;;;;;;47.65;27.90;;;-1.90;99.90;;;;;;5138656;27;20031;-73
2023/12/03 07:35:05;;;;;;;52.90;32.17;;;-1.80;99.90;;;;;;5139244;27;20090;-74
2023/12/03 07:37:31;;;;;;;42.13;27.65;;;-1.80;99.90;;;;;;5138561;27;20035;-74
2023/12/03 07:39:57;;;;;;;53.08;30.02;;;-1.80;99.90;;;;;;5117176;28;20027;-74
2023/12/03 07:42:25;;;;;;;149.57;61.85;;;-1.70;99.90;;;;;;5135638;27;20035;-74
2023/12/03 07:44:50;;;;;;;95.65;45.50;;;-1.70;99.90;;;;;;5120323;27;20026;-73
2023/12/03 07:47:16;;;;;;;82.70;43.78;;;-1.70;99.90;;;;;;5115062;27;20467;-77
2023/12/03 07:49:43;;;;;;;159.05;68.45;;;-1.60;99.90;;;;;;5137329;27;20471;-78
2023/12/03 07:52:09;;;;;;;138.93;64.07;;;-1.60;99.90;;;;;;5118234;27;20031;-78
2023/12/03 07:54:34;;;;;;;187.75;87.20;;;-1.60;99.90;;;;;;5136815;27;20042;-77
2023/12/03 07:57:00;;;;;;;200.40;92.03;;;-1.50;99.90;;;;;;5137060;27;20023;-77
2023/12/03 07:59:26;;;;;;;151.00;73.32;;;-1.40;99.90;;;;;;5137478;27;20023;-77
2023/12/03 08:01:52;;;;;;;78.47;43.75;;;-1.40;99.90;;;;;;5118605;27;20109;-78
2023/12/03 08:04:18;;;;;;;53.75;34.03;;;-1.30;99.90;;;;;;5118668;27;20027;-77
2023/12/03 08:06:43;;;;;;;122.70;62.03;;;-1.20;99.90;;;;;;5136263;27;20027;-77
2023/12/03 08:09:09;;;;;;;94.32;53.65;;;-1.20;99.90;;;;;;5137228;27;20095;-77
2023/12/03 08:11:36;;;;;;;252.65;123.00;;;-1.10;99.90;;;;;;5118923;27;20035;-77
2023/12/03 08:14:02;;;;;;;167.10;85.70;;;-1.00;99.90;;;;;;5137016;27;20019;-77
2023/12/03 08:16:28;;;;;;;128.43;73.30;;;-1.00;99.90;;;;;;5118638;27;20023;-77
2023/12/03 08:18:53;;;;;;;142.18;73.80;;;-0.90;99.90;;;;;;5136011;27;20019;-77
2023/12/03 08:21:19;;;;;;;104.00;55.00;;;-0.90;99.90;;;;;;5136882;27;20087;-77
2023/12/03 08:23:44;;;;;;;156.75;83.80;;;-0.80;99.90;;;;;;5136890;27;20439;-77
2023/12/03 08:26:10;;;;;;;252.65;128.23;;;-0.70;99.90;;;;;;5136746;27;20034;-77
2023/12/03 08:28:36;;;;;;;137.07;75.10;;;-0.60;99.90;;;;;;5136155;27;20103;-77
2023/12/03 08:31:02;;;;;;;160.32;84.53;;;-0.60;99.90;;;;;;5136654;27;20031;-77
2023/12/03 08:33:27;;;;;;;88.72;53.10;;;-0.50;99.90;;;;;;5116369;27;20042;-76
2023/12/03 08:35:53;;;;;;;180.52;95.57;;;-0.40;99.90;;;;;;5136101;27;20031;-77
2023/12/03 08:38:19;;;;;;;68.88;44.83;;;-0.40;99.90;;;;;;5135697;27;20106;-77
2023/12/03 08:40:44;;;;;;;80.20;47.58;;;-0.20;99.90;;;;;;5136402;27;20056;-77
2023/12/03 08:43:10;;;;;;;79.57;48.72;;;-0.10;99.90;;;;;;5136731;27;20025;-77
2023/12/03 08:45:36;;;;;;;98.82;59.90;;;-0.10;99.90;;;;;;5136211;27;20056;-79
2023/12/03 08:48:01;;;;;;;72.25;41.92;;;-0.10;99.90;;;;;;5135755;27;20015;-78
2023/12/03 08:50:30;;;;;;;196.35;102.60;;;0.00;99.90;;;;;;5136244;27;20011;-77
2023/12/03 08:52:55;;;;;;;434.35;225.25;;;0.10;99.90;;;;;;5136425;27;20180;-77
2023/12/03 08:55:21;;;;;;;196.13;111.97;;;0.10;99.90;;;;;;5117897;27;20121;-77
2023/12/03 08:57:48;;;;;;;418.15;185.57;;;0.20;99.90;;;;;;5135435;27;20483;-77
2023/12/03 09:00:15;;;;;;;869.67;409.95;;;0.20;99.90;;;;;;5135480;27;20521;-77
2023/12/03 09:02:45;;;;;;;1061.15;526.13;;;0.30;99.90;;;;;;5135308;27;20502;-77
2023/12/03 09:05:11;;;;;;;557.72;272.30;;;0.30;99.90;;;;;;5135816;27;20031;-77
2023/12/03 09:07:37;;;;;;;425.88;241.25;;;0.40;99.90;;;;;;5135038;27;20026;-77
2023/12/03 09:10:04;;;;;;;288.05;117.38;;;0.40;99.90;;;;;;5136430;27;20490;-77
2023/12/03 09:12:29;;;;;;;372.63;133.93;;;0.50;99.90;;;;;;5136012;27;20098;-77
2023/12/03 09:14:55;;;;;;;167.95;76.43;;;0.50;99.90;;;;;;5134151;27;20118;-77
2023/12/03 09:17:21;;;;;;;379.15;140.10;;;0.60;99.90;;;;;;5134557;27;20019;-77
2023/12/03 09:19:47;;;;;;;365.42;139.85;;;0.60;99.90;;;;;;5135726;27;20027;-77
2023/12/03 09:22:12;;;;;;;217.77;89.97;;;0.70;99.90;;;;;;5135678;27;20015;-78
2023/12/03 09:24:38;;;;;;;131.43;64.15;;;0.80;99.90;;;;;;5117284;27;20453;-76
2023/12/03 09:27:04;;;;;;;465.63;182.45;;;0.90;99.90;;;;;;5134933;27;20011;-75
2023/12/03 09:29:29;;;;;;;136.32;65.00;;;1.00;99.90;;;;;;5136252;27;20031;-75
2023/12/03 09:31:55;;;;;;;119.80;58.17;;;1.00;99.90;;;;;;5135596;27;20030;-76
2023/12/03 09:34:20;;;;;;;277.38;118.47;;;1.10;99.90;;;;;;5135068;27;20031;-75
2023/12/03 09:36:46;;;;;;;397.92;171.65;;;1.20;99.90;;;;;;5134927;27;20027;-76
2023/12/03 09:39:12;;;;;;;440.48;185.00;;;1.40;99.90;;;;;;5135247;27;20449;-76
2023/12/03 09:41:44;;;;;;;225.68;96.97;;;1.50;99.90;;;;;;5135377;27;20027;-76
2023/12/03 09:44:20;;;;;;;186.73;103.50;;;1.50;99.90;;;;;;5113194;27;20058;-77
2023/12/03 09:46:48;;;;;;;102.25;51.58;;;1.60;99.90;;;;;;5132837;27;20031;-77
2023/12/03 09:49:16;;;;;;;58.22;34.67;;;1.70;99.90;;;;;;5134107;27;20023;-77
2023/12/03 09:51:41;;;;;;;181.30;78.10;;;1.80;99.90;;;;;;5133919;27;20444;-76
2023/12/03 09:54:11;;;;;;;51.70;33.47;;;1.90;99.90;;;;;;5134815;27;20146;-77
2023/12/03 09:56:39;;;;;;;;;;;2.10;99.90;;;;;;5135649;27;20116;-77
2023/12/03 09:59:08;;;;;;;44.70;29.00;;;2.20;99.90;;;;;;5134666;28;19964;-77
2023/12/03 10:01:38;;;;;;;50.38;28.77;;;2.40;99.90;;;;;;5135415;28;20460;-77
2023/12/03 10:04:04;;;;;;;46.20;27.10;;;2.50;99.90;;;;;;5130431;28;20066;-77
2023/12/03 10:06:34;;;;;;;49.70;27.65;;;2.50;99.90;;;;;;5135162;28;20024;-77
2023/12/03 10:09:02;;;;;;;88.13;45.65;;;2.60;99.90;;;;;;5134363;28;20015;-76
2023/12/03 10:11:35;;;;;;;125.45;61.17;;;2.60;99.90;;;;;;5135429;28;20031;-77
2023/12/03 10:14:01;;;;;;;80.25;39.72;;;2.70;99.90;;;;;;5111386;28;20076;-77
2023/12/03 10:16:27;;;;;;;73.93;36.70;;;2.70;99.90;;;;;;5132740;28;20019;-77
2023/12/03 10:18:53;;;;;;;43.10;26.58;;;2.80;99.90;;;;;;5130161;28;20168;-77
2023/12/03 10:21:18;;;;;;;107.63;51.55;;;2.80;99.90;;;;;;5112363;28;20023;-77
2023/12/03 10:24:00;;;;;;;58.35;32.92;;;2.90;99.90;;;;;;5135992;28;20024;-77
2023/12/03 10:26:26;;;;;;;28.85;20.90;;;2.90;99.90;;;;;;5117139;28;20031;-78
2023/12/03 10:28:53;;;;;;;37.90;23.60;;;3.00;99.90;;;;;;5135310;28;20029;-77
2023/12/03 10:31:18;;;;;;;135.00;63.08;;;3.00;99.90;;;;;;5136289;28;20059;-77
2023/12/03 10:33:44;;;;;;;36.97;23.38;;;3.10;99.90;;;;;;5135746;28;20058;-77
2023/12/03 10:36:11;;;;;;;44.53;27.73;;;3.20;99.90;;;;;;5135985;28;20031;-77
2023/12/03 10:38:41;;;;;;;74.65;37.08;;;3.20;99.90;;;;;;5135782;28;20495;-77
2023/12/03 10:41:08;;;;;;;188.33;87.07;;;3.20;99.90;;;;;;5136160;28;20027;-77
2023/12/03 10:43:42;;;;;;;124.63;61.05;;;3.20;99.90;;;;;;5135891;28;20310;-77
2023/12/03 10:46:10;;;;;;;106.43;53.58;;;3.20;99.90;;;;;;5136077;28;20456;-77
2023/12/03 10:48:36;;;;;;;86.95;41.67;;;3.30;99.90;;;;;;5117179;28;20024;-77
2023/12/03 10:51:04;;;;;;;50.13;29.02;;;3.30;99.90;;;;;;5136120;28;20051;-77
2023/12/03 10:53:34;;;;;;;83.72;40.50;;;3.30;99.90;;;;;;5135605;28;20083;-77
2023/12/03 10:56:07;;;;;;;73.13;35.05;;;3.40;99.90;;;;;;5136084;27;20106;-77
2023/12/03 10:58:38;;;;;;;119.20;52.50;;;3.40;99.90;;;;;;5139390;27;20015;-77
2023/12/03 11:01:08;;;;;;;111.93;50.08;;;3.40;99.90;;;;;;5139754;27;20496;-77
2023/12/03 11:03:41;;;;;;;;;;;3.50;99.90;;;;;;5139874;27;20019;-77
2023/12/03 11:06:12;;;;;;;118.32;52.00;;;3.70;99.90;;;;;;5139374;27;19907;-78
2023/12/03 11:08:38;;;;;;;213.55;95.88;;;3.70;99.90;;;;;;5127275;27;20034;-78
2023/12/03 11:11:05;;;;;;;32.50;22.35;;;3.80;99.90;;;;;;5139492;27;20645;-78
2023/12/03 11:13:32;;;;;;;123.35;54.88;;;3.80;99.90;;;;;;5117704;28;20422;-77
2023/12/03 11:15:58;;;;;;;31.45;23.30;;;3.90;99.90;;;;;;5120856;27;20023;-77
2023/12/03 11:18:25;;;;;;;20.45;15.02;;;3.90;99.90;;;;;;5139237;27;20023;-78
2023/12/03 11:20:57;;;;;;;19.77;14.30;;;4.00;99.90;;;;;;5115774;27;20019;-77
2023/12/03 11:23:43;;;;;;;24.55;14.13;;;4.00;99.90;;;;;;5125668;27;20521;-77
2023/12/03 11:26:15;;;;;;;19.83;13.52;;;4.10;99.90;;;;;;5120679;27;20031;-77
2023/12/03 11:28:55;;;;;;;16.80;13.32;;;4.30;99.90;;;;;;5139292;27;20038;-77
2023/12/03 11:31:23;;;;;;;19.35;13.77;;;4.30;99.90;;;;;;5139099;27;20023;-75
2023/12/03 11:33:59;;;;;;;15.65;11.80;;;4.40;99.90;;;;;;5139001;27;20560;-75
2023/12/03 11:36:35;;;;;;;19.20;12.75;;;4.40;99.90;;;;;;5138410;27;20026;-76
2023/12/03 11:39:02;;;;;;;16.30;12.45;;;4.50;99.90;;;;;;5138904;27;20102;-76
2023/12/03 11:41:35;;;;;;;13.60;10.75;;;4.60;99.90;;;;;;5138956;27;20048;-75
2023/12/03 11:44:23;;;;;;;13.23;10.55;;;4.60;99.90;;;;;;5138904;27;20463;-75
2023/12/03 11:47:00;;;;;;;15.00;10.77;;;4.70;99.90;;;;;;5120196;27;20031;-75
2023/12/03 11:49:27;;;;;;;15.35;9.88;;;4.70;99.90;;;;;;5138793;27;20106;-76
2023/12/03 11:51:53;;;;;;;11.10;9.60;;;4.80;99.90;;;;;;5138710;27;20019;-75
2023/12/03 11:54:24;;;;;;;10.85;8.32;;;4.80;99.90;;;;;;5138470;27;20039;-74
2023/12/03 11:56:50;;;;;;;24.83;12.55;;;4.80;99.90;;;;;;5138658;27;20021;-75
2023/12/03 11:59:16;;;;;;;12.80;8.55;;;5.00;99.90;;;;;;5138831;27;20034;-75
2023/12/03 12:01:41;;;;;;;10.65;5.93;;;5.10;99.90;;;;;;5138205;27;20475;-75
2023/12/03 12:04:07;;;;;;;6.15;5.55;;;5.00;99.90;;;;;;5138649;27;20371;-75
2023/12/03 12:06:33;;;;;;;6.25;5.65;;;5.10;99.90;;;;;;5138092;27;20031;-75
2023/12/03 12:08:59;;;;;;;6.30;5.70;;;5.20;99.90;;;;;;5138177;27;20019;-75
2023/12/03 12:11:25;;;;;;;5.80;5.28;;;5.30;99.90;;;;;;5118664;27;20517;-75
2023/12/03 12:13:51;;;;;;;6.28;5.65;;;5.30;99.90;;;;;;5138208;27;20075;-75
2023/12/03 12:16:16;;;;;;;6.10;5.28;;;5.30;99.90;;;;;;5137943;27;20099;-75
2023/12/03 12:18:42;;;;;;;5.75;4.13;;;5.30;99.90;;;;;;5135615;27;20072;-75
2023/12/03 12:21:10;;;;;;;5.35;4.78;;;5.50;99.90;;;;;;5136547;27;20530;-75
2023/12/03 12:23:36;;;;;;;4.93;4.53;;;5.50;99.90;;;;;;5119367;27;20023;-75
2023/12/03 12:26:02;;;;;;;4.57;4.18;;;5.60;99.90;;;;;;5119278;27;20087;-75